KLGC/LGC METAR and TAF weather

Enter ICAO airport designator
Station Type Date Time Source
KLGC METAR 2021/05/14 13:35 UTC NOAA

KLGC 141335Z AUTO 00000KT 10SM CLR 16/08 A3029 RMK AO2 T01640080


Station Type Date Time Source
KLGC Decoded METAR 2021/05/14 13:35 UTC NOAA

La Grange, Callaway Airport, GA, United States (KLGC) 33-00-32N 085-04-21W
May 14, 2021 - 09:35 AM EDT / 2021.05.14 1335 UTC
Wind: Calm:0
Visibility: 10 mile(s):0
Sky conditions: clear
Temperature: 61.5 F (16.4 C)
Dew Point: 46.4 F (8.0 C)
Relative Humidity: 57%
Pressure (altimeter): 30.29 in. Hg (1025 hPa)
ob: KLGC 141335Z AUTO 00000KT 10SM CLR 16/08 A3029 RMK AO2 T01640080
cycle: 13

Station Type Date Time Source
KLGC TAF UTC NOAA

Error!

Example: see airport list